sensor_id;sensor_type;location;lat;lon;timestamp;temperature;humidity
6724;DHT22;3399;52.530;13.304;2022-11-14T00:00:06;7.30;99.90
6724;DHT22;3399;52.530;13.304;2022-11-14T00:02:32;7.30;99.90
6724;DHT22;3399;52.530;13.304;2022-11-14T00:04:58;7.30;99.90
6724;DHT22;3399;52.530;13.304;2022-11-14T00:07:23;7.20;99.90
6724;DHT22;3399;52.530;13.304;2022-11-14T00:09:48;7.20;99.90
6724;DHT22;3399;52.530;13.304;2022-11-14T00:12:14;7.20;99.90
6724;DHT22;3399;52.530;13.304;2022-11-14T00:14:39;7.20;99.90
6724;DHT22;3399;52.530;13.304;2022-11-14T00:17:05;7.20;99.90
6724;DHT22;3399;52.530;13.304;2022-11-14T00:19:31;7.10;99.90
6724;DHT22;3399;52.530;13.304;2022-11-14T00:21:56;7.10;99.90
6724;DHT22;3399;52.530;13.304;2022-11-14T00:24:22;7.10;99.90
6724;DHT22;3399;52.530;13.304;2022-11-14T00:26:48;7.10;99.90
6724;DHT22;3399;52.530;13.304;2022-11-14T00:29:14;7.10;99.90
6724;DHT22;3399;52.530;13.304;2022-11-14T00:31:40;7.10;99.90
6724;DHT22;3399;52.530;13.304;2022-11-14T00:34:05;7.10;99.90
6724;DHT22;3399;52.530;13.304;2022-11-14T00:36:31;7.10;99.90
6724;DHT22;3399;52.530;13.304;2022-11-14T00:38:56;7.10;99.90
6724;DHT22;3399;52.530;13.304;2022-11-14T00:41:22;7.00;99.90
6724;DHT22;3399;52.530;13.304;2022-11-14T00:43:48;7.00;99.90
6724;DHT22;3399;52.530;13.304;2022-11-14T00:46:13;7.00;99.90
6724;DHT22;3399;52.530;13.304;2022-11-14T00:48:39;7.10;99.90
6724;DHT22;3399;52.530;13.304;2022-11-14T00:51:05;7.00;99.90
6724;DHT22;3399;52.530;13.304;2022-11-14T00:53:31;7.00;99.90
6724;DHT22;3399;52.530;13.304;2022-11-14T00:55:57;7.00;99.90
6724;DHT22;3399;52.530;13.304;2022-11-14T00:58:22;7.00;99.90
6724;DHT22;3399;52.530;13.304;2022-11-14T01:00:47;7.00;99.90
6724;DHT22;3399;52.530;13.304;2022-11-14T01:03:13;6.90;99.90
6724;DHT22;3399;52.530;13.304;2022-11-14T01:05:46;6.90;99.90
6724;DHT22;3399;52.530;13.304;2022-11-14T01:08:14;6.90;99.90
6724;DHT22;3399;52.530;13.304;2022-11-14T01:10:45;6.90;99.90
6724;DHT22;3399;52.530;13.304;2022-11-14T01:13:10;6.90;99.90
6724;DHT22;3399;52.530;13.304;2022-11-14T01:15:40;6.90;99.90
6724;DHT22;3399;52.530;13.304;2022-11-14T01:18:06;6.80;99.90
6724;DHT22;3399;52.530;13.304;2022-11-14T01:20:32;6.80;99.90
6724;DHT22;3399;52.530;13.304;2022-11-14T01:22:57;6.80;99.90
6724;DHT22;3399;52.530;13.304;2022-11-14T01:25:23;6.80;99.90
6724;DHT22;3399;52.530;13.304;2022-11-14T01:27:48;6.70;99.90
6724;DHT22;3399;52.530;13.304;2022-11-14T01:30:14;6.70;99.90
6724;DHT22;3399;52.530;13.304;2022-11-14T01:32:39;6.70;99.90
6724;DHT22;3399;52.530;13.304;2022-11-14T01:35:05;6.70;99.90
6724;DHT22;3399;52.530;13.304;2022-11-14T01:37:30;6.60;99.90
6724;DHT22;3399;52.530;13.304;2022-11-14T01:39:56;6.60;99.90
6724;DHT22;3399;52.530;13.304;2022-11-14T01:42:21;6.60;99.90
6724;DHT22;3399;52.530;13.304;2022-11-14T01:44:51;6.60;99.90
6724;DHT22;3399;52.530;13.304;2022-11-14T01:47:24;6.50;99.90
6724;DHT22;3399;52.530;13.304;2022-11-14T01:49:55;6.50;99.90
6724;DHT22;3399;52.530;13.304;2022-11-14T01:52:24;6.50;99.90
6724;DHT22;3399;52.530;13.304;2022-11-14T01:54:53;6.50;99.90
6724;DHT22;3399;52.530;13.304;2022-11-14T01:57:22;6.50;99.90
6724;DHT22;3399;52.530;13.304;2022-11-14T01:59:52;6.40;99.90
6724;DHT22;3399;52.530;13.304;2022-11-14T02:02:21;6.40;99.90
6724;DHT22;3399;52.530;13.304;2022-11-14T02:05:03;6.40;99.90
6724;DHT22;3399;52.530;13.304;2022-11-14T02:07:32;6.40;99.90
6724;DHT22;3399;52.530;13.304;2022-11-14T02:10:01;6.40;99.90
6724;DHT22;3399;52.530;13.304;2022-11-14T02:12:28;6.40;99.90
6724;DHT22;3399;52.530;13.304;2022-11-14T02:14:55;6.40;99.90
6724;DHT22;3399;52.530;13.304;2022-11-14T02:17:22;6.40;99.90
6724;DHT22;3399;52.530;13.304;2022-11-14T02:19:53;6.40;99.90
6724;DHT22;3399;52.530;13.304;2022-11-14T02:22:19;6.50;99.90
6724;DHT22;3399;52.530;13.304;2022-11-14T02:24:44;6.50;99.90
6724;DHT22;3399;52.530;13.304;2022-11-14T02:27:11;6.60;99.90
6724;DHT22;3399;52.530;13.304;2022-11-14T02:29:38;6.60;99.90
6724;DHT22;3399;52.530;13.304;2022-11-14T02:32:04;6.70;99.90
6724;DHT22;3399;52.530;13.304;2022-11-14T02:34:29;6.70;99.90
6724;DHT22;3399;52.530;13.304;2022-11-14T02:36:55;6.80;99.90
6724;DHT22;3399;52.530;13.304;2022-11-14T02:39:21;6.70;99.90
6724;DHT22;3399;52.530;13.304;2022-11-14T02:41:48;6.80;99.90
6724;DHT22;3399;52.530;13.304;2022-11-14T02:44:14;6.80;99.90
6724;DHT22;3399;52.530;13.304;2022-11-14T02:46:39;6.80;99.90
6724;DHT22;3399;52.530;13.304;2022-11-14T02:49:05;6.90;99.90
6724;DHT22;3399;52.530;13.304;2022-11-14T02:51:30;6.90;99.90
6724;DHT22;3399;52.530;13.304;2022-11-14T02:53:56;6.90;99.90
6724;DHT22;3399;52.530;13.304;2022-11-14T02:56:21;6.90;99.90
6724;DHT22;3399;52.530;13.304;2022-11-14T02:58:47;6.90;99.90
6724;DHT22;3399;52.530;13.304;2022-11-14T03:01:12;7.00;99.90
6724;DHT22;3399;52.530;13.304;2022-11-14T03:03:37;7.00;99.90
6724;DHT22;3399;52.530;13.304;2022-11-14T03:06:04;7.00;99.90
6724;DHT22;3399;52.530;13.304;2022-11-14T03:08:29;6.90;99.90
6724;DHT22;3399;52.530;13.304;2022-11-14T03:10:55;6.90;99.90
6724;DHT22;3399;52.530;13.304;2022-11-14T03:13:21;6.90;99.90
6724;DHT22;3399;52.530;13.304;2022-11-14T03:15:46;6.90;99.90
6724;DHT22;3399;52.530;13.304;2022-11-14T03:18:12;6.90;99.90
6724;DHT22;3399;52.530;13.304;2022-11-14T03:20:38;6.90;99.90
6724;DHT22;3399;52.530;13.304;2022-11-14T03:23:03;6.80;99.90
6724;DHT22;3399;52.530;13.304;2022-11-14T03:25:29;6.80;99.90
6724;DHT22;3399;52.530;13.304;2022-11-14T03:27:54;6.80;99.90
6724;DHT22;3399;52.530;13.304;2022-11-14T03:30:20;6.80;99.90
6724;DHT22;3399;52.530;13.304;2022-11-14T03:32:45;6.80;99.90
6724;DHT22;3399;52.530;13.304;2022-11-14T03:35:11;6.70;99.90
6724;DHT22;3399;52.530;13.304;2022-11-14T03:37:37;6.70;99.90
6724;DHT22;3399;52.530;13.304;2022-11-14T03:40:03;6.60;99.90
6724;DHT22;3399;52.530;13.304;2022-11-14T03:42:32;6.70;99.90
6724;DHT22;3399;52.530;13.304;2022-11-14T03:44:58;6.60;99.90
6724;DHT22;3399;52.530;13.304;2022-11-14T03:47:23;6.60;99.90
6724;DHT22;3399;52.530;13.304;2022-11-14T03:49:48;6.70;99.90
6724;DHT22;3399;52.530;13.304;2022-11-14T03:52:14;6.60;99.90
6724;DHT22;3399;52.530;13.304;2022-11-14T03:54:39;6.60;99.90
6724;DHT22;3399;52.530;13.304;2022-11-14T03:57:05;6.60;99.90
6724;DHT22;3399;52.530;13.304;2022-11-14T03:59:31;6.70;99.90
6724;DHT22;3399;52.530;13.304;2022-11-14T04:01:56;6.70;99.90
6724;DHT22;3399;52.530;13.304;2022-11-14T04:04:22;6.70;99.90
6724;DHT22;3399;52.530;13.304;2022-11-14T04:06:47;6.70;99.90
6724;DHT22;3399;52.530;13.304;2022-11-14T04:09:13;6.70;99.90
6724;DHT22;3399;52.530;13.304;2022-11-14T04:11:38;6.70;99.90
6724;DHT22;3399;52.530;13.304;2022-11-14T04:14:04;6.70;99.90
6724;DHT22;3399;52.530;13.304;2022-11-14T04:16:29;6.70;99.90
6724;DHT22;3399;52.530;13.304;2022-11-14T04:18:55;6.70;99.90
6724;DHT22;3399;52.530;13.304;2022-11-14T04:21:20;6.60;99.90
6724;DHT22;3399;52.530;13.304;2022-11-14T04:23:45;6.50;99.90
6724;DHT22;3399;52.530;13.304;2022-11-14T04:26:11;6.40;99.90
6724;DHT22;3399;52.530;13.304;2022-11-14T04:28:36;6.40;99.90
6724;DHT22;3399;52.530;13.304;2022-11-14T04:31:02;6.40;99.90
6724;DHT22;3399;52.530;13.304;2022-11-14T04:33:27;6.40;99.90
6724;DHT22;3399;52.530;13.304;2022-11-14T04:35:53;6.30;99.90
6724;DHT22;3399;52.530;13.304;2022-11-14T04:38:18;6.30;99.90
6724;DHT22;3399;52.530;13.304;2022-11-14T04:40:53;6.30;99.90
6724;DHT22;3399;52.530;13.304;2022-11-14T04:43:19;6.30;99.90
6724;DHT22;3399;52.530;13.304;2022-11-14T04:45:45;6.20;99.90
6724;DHT22;3399;52.530;13.304;2022-11-14T04:48:11;6.20;99.90
6724;DHT22;3399;52.530;13.304;2022-11-14T04:50:36;6.20;99.90
6724;DHT22;3399;52.530;13.304;2022-11-14T04:53:02;6.20;99.90
6724;DHT22;3399;52.530;13.304;2022-11-14T04:55:27;6.20;99.90
6724;DHT22;3399;52.530;13.304;2022-11-14T04:57:54;6.20;99.90
6724;DHT22;3399;52.530;13.304;2022-11-14T05:00:20;6.20;99.90
6724;DHT22;3399;52.530;13.304;2022-11-14T05:02:46;6.10;99.90
6724;DHT22;3399;52.530;13.304;2022-11-14T05:05:11;6.10;99.90
6724;DHT22;3399;52.530;13.304;2022-11-14T05:07:37;6.10;99.90
6724;DHT22;3399;52.530;13.304;2022-11-14T05:10:03;6.10;99.90
6724;DHT22;3399;52.530;13.304;2022-11-14T05:12:29;6.10;99.90
6724;DHT22;3399;52.530;13.304;2022-11-14T05:14:54;6.10;99.90
6724;DHT22;3399;52.530;13.304;2022-11-14T05:17:20;6.10;99.90
6724;DHT22;3399;52.530;13.304;2022-11-14T05:19:45;6.10;99.90
6724;DHT22;3399;52.530;13.304;2022-11-14T05:22:11;6.10;99.90
6724;DHT22;3399;52.530;13.304;2022-11-14T05:24:36;6.10;99.90
6724;DHT22;3399;52.530;13.304;2022-11-14T05:27:02;6.10;99.90
6724;DHT22;3399;52.530;13.304;2022-11-14T05:29:27;6.00;99.90
6724;DHT22;3399;52.530;13.304;2022-11-14T05:31:53;6.10;99.90
6724;DHT22;3399;52.530;13.304;2022-11-14T05:34:18;6.00;99.90
6724;DHT22;3399;52.530;13.304;2022-11-14T05:36:44;6.00;99.90
6724;DHT22;3399;52.530;13.304;2022-11-14T05:39:09;5.90;99.90
6724;DHT22;3399;52.530;13.304;2022-11-14T05:41:35;5.90;99.90
6724;DHT22;3399;52.530;13.304;2022-11-14T05:44:03;5.90;99.90
6724;DHT22;3399;52.530;13.304;2022-11-14T05:46:29;5.90;99.90
6724;DHT22;3399;52.530;13.304;2022-11-14T05:48:54;5.90;99.90
6724;DHT22;3399;52.530;13.304;2022-11-14T05:51:19;6.00;99.90
6724;DHT22;3399;52.530;13.304;2022-11-14T05:53:45;6.00;99.90
6724;DHT22;3399;52.530;13.304;2022-11-14T05:56:11;6.00;99.90
6724;DHT22;3399;52.530;13.304;2022-11-14T05:58:38;6.10;99.90
6724;DHT22;3399;52.530;13.304;2022-11-14T06:01:09;6.20;99.90
6724;DHT22;3399;52.530;13.304;2022-11-14T06:03:40;6.20;99.90
6724;DHT22;3399;52.530;13.304;2022-11-14T06:06:07;6.20;99.90
6724;DHT22;3399;52.530;13.304;2022-11-14T06:08:34;6.20;99.90
6724;DHT22;3399;52.530;13.304;2022-11-14T06:11:08;6.30;99.90
6724;DHT22;3399;52.530;13.304;2022-11-14T06:13:34;6.30;99.90
6724;DHT22;3399;52.530;13.304;2022-11-14T06:16:05;6.20;99.90
6724;DHT22;3399;52.530;13.304;2022-11-14T06:18:32;6.30;99.90
6724;DHT22;3399;52.530;13.304;2022-11-14T06:21:02;6.20;99.90
6724;DHT22;3399;52.530;13.304;2022-11-14T06:23:28;6.20;99.90
6724;DHT22;3399;52.530;13.304;2022-11-14T06:26:02;6.20;99.90
6724;DHT22;3399;52.530;13.304;2022-11-14T06:28:28;6.20;99.90
6724;DHT22;3399;52.530;13.304;2022-11-14T06:31:02;6.20;99.90
6724;DHT22;3399;52.530;13.304;2022-11-14T06:33:28;6.20;99.90
6724;DHT22;3399;52.530;13.304;2022-11-14T06:36:02;6.10;99.90
6724;DHT22;3399;52.530;13.304;2022-11-14T06:38:30;6.10;99.90
6724;DHT22;3399;52.530;13.304;2022-11-14T06:41:07;6.10;99.90
6724;DHT22;3399;52.530;13.304;2022-11-14T06:43:34;6.10;99.90
6724;DHT22;3399;52.530;13.304;2022-11-14T06:46:01;6.10;99.90
6724;DHT22;3399;52.530;13.304;2022-11-14T06:48:27;6.10;99.90
6724;DHT22;3399;52.530;13.304;2022-11-14T06:50:54;6.00;99.90
6724;DHT22;3399;52.530;13.304;2022-11-14T06:53:20;6.00;99.90
6724;DHT22;3399;52.530;13.304;2022-11-14T06:56:00;6.00;99.90
6724;DHT22;3399;52.530;13.304;2022-11-14T06:58:33;6.00;99.90
6724;DHT22;3399;52.530;13.304;2022-11-14T07:01:17;6.00;99.90
6724;DHT22;3399;52.530;13.304;2022-11-14T07:03:43;6.00;99.90
6724;DHT22;3399;52.530;13.304;2022-11-14T07:06:11;6.10;99.90
6724;DHT22;3399;52.530;13.304;2022-11-14T07:08:37;6.10;99.90
6724;DHT22;3399;52.530;13.304;2022-11-14T07:11:09;6.10;99.90
6724;DHT22;3399;52.530;13.304;2022-11-14T07:13:35;6.20;99.90
6724;DHT22;3399;52.530;13.304;2022-11-14T07:16:01;6.20;99.90
6724;DHT22;3399;52.530;13.304;2022-11-14T07:18:29;6.20;99.90
6724;DHT22;3399;52.530;13.304;2022-11-14T07:21:01;6.20;99.90
6724;DHT22;3399;52.530;13.304;2022-11-14T07:23:27;6.20;99.90
6724;DHT22;3399;52.530;13.304;2022-11-14T07:25:53;6.30;99.90
6724;DHT22;3399;52.530;13.304;2022-11-14T07:28:18;6.30;99.90
6724;DHT22;3399;52.530;13.304;2022-11-14T07:30:44;6.30;99.90
6724;DHT22;3399;52.530;13.304;2022-11-14T07:33:10;6.40;99.90
6724;DHT22;3399;52.530;13.304;2022-11-14T07:35:37;6.40;99.90
6724;DHT22;3399;52.530;13.304;2022-11-14T07:38:03;6.40;99.90
6724;DHT22;3399;52.530;13.304;2022-11-14T07:40:29;6.40;99.90
6724;DHT22;3399;52.530;13.304;2022-11-14T07:42:58;6.50;99.90
6724;DHT22;3399;52.530;13.304;2022-11-14T07:45:25;6.50;99.90
6724;DHT22;3399;52.530;13.304;2022-11-14T07:48:01;6.50;99.90
6724;DHT22;3399;52.530;13.304;2022-11-14T07:50:27;6.60;99.90
6724;DHT22;3399;52.530;13.304;2022-11-14T07:52:54;6.60;99.90
6724;DHT22;3399;52.530;13.304;2022-11-14T07:55:20;6.60;99.90
6724;DHT22;3399;52.530;13.304;2022-11-14T07:57:46;6.70;99.90
6724;DHT22;3399;52.530;13.304;2022-11-14T08:00:13;6.70;99.90
6724;DHT22;3399;52.530;13.304;2022-11-14T08:02:38;6.80;99.90
6724;DHT22;3399;52.530;13.304;2022-11-14T08:05:04;6.90;99.90
6724;DHT22;3399;52.530;13.304;2022-11-14T08:07:30;6.90;99.90
6724;DHT22;3399;52.530;13.304;2022-11-14T08:09:55;7.00;99.90
6724;DHT22;3399;52.530;13.304;2022-11-14T08:12:21;7.00;99.90
6724;DHT22;3399;52.530;13.304;2022-11-14T08:14:47;7.00;99.90
6724;DHT22;3399;52.530;13.304;2022-11-14T08:17:12;7.10;99.90
6724;DHT22;3399;52.530;13.304;2022-11-14T08:19:37;7.20;99.90
6724;DHT22;3399;52.530;13.304;2022-11-14T08:22:03;7.20;99.90
6724;DHT22;3399;52.530;13.304;2022-11-14T08:24:28;7.30;99.90
6724;DHT22;3399;52.530;13.304;2022-11-14T08:26:54;7.30;99.90
6724;DHT22;3399;52.530;13.304;2022-11-14T08:29:19;7.30;99.90
6724;DHT22;3399;52.530;13.304;2022-11-14T08:31:45;7.30;99.90
6724;DHT22;3399;52.530;13.304;2022-11-14T08:34:11;7.30;99.90
6724;DHT22;3399;52.530;13.304;2022-11-14T08:36:36;7.30;99.90
6724;DHT22;3399;52.530;13.304;2022-11-14T08:39:02;7.40;99.90
6724;DHT22;3399;52.530;13.304;2022-11-14T08:41:28;7.40;99.90
6724;DHT22;3399;52.530;13.304;2022-11-14T08:43:53;7.40;99.90
6724;DHT22;3399;52.530;13.304;2022-11-14T08:46:19;7.40;99.90
6724;DHT22;3399;52.530;13.304;2022-11-14T08:48:44;7.40;99.90
6724;DHT22;3399;52.530;13.304;2022-11-14T08:51:10;7.40;99.90
6724;DHT22;3399;52.530;13.304;2022-11-14T08:53:35;7.50;99.90
6724;DHT22;3399;52.530;13.304;2022-11-14T08:56:01;7.50;99.90
6724;DHT22;3399;52.530;13.304;2022-11-14T08:58:28;7.60;99.90
6724;DHT22;3399;52.530;13.304;2022-11-14T09:00:59;7.60;99.90
6724;DHT22;3399;52.530;13.304;2022-11-14T09:03:24;7.70;99.90
6724;DHT22;3399;52.530;13.304;2022-11-14T09:05:51;7.80;99.90
6724;DHT22;3399;52.530;13.304;2022-11-14T09:08:16;7.80;99.90
6724;DHT22;3399;52.530;13.304;2022-11-14T09:10:42;7.80;99.90
6724;DHT22;3399;52.530;13.304;2022-11-14T09:13:07;7.90;99.90
6724;DHT22;3399;52.530;13.304;2022-11-14T09:15:33;7.90;99.90
6724;DHT22;3399;52.530;13.304;2022-11-14T09:17:58;7.80;99.90
6724;DHT22;3399;52.530;13.304;2022-11-14T09:20:25;7.80;99.90
6724;DHT22;3399;52.530;13.304;2022-11-14T09:22:51;7.80;99.90
6724;DHT22;3399;52.530;13.304;2022-11-14T09:25:18;7.90;99.90
6724;DHT22;3399;52.530;13.304;2022-11-14T09:27:46;8.00;99.90
6724;DHT22;3399;52.530;13.304;2022-11-14T09:30:12;8.10;99.90
6724;DHT22;3399;52.530;13.304;2022-11-14T09:32:38;8.10;99.90
6724;DHT22;3399;52.530;13.304;2022-11-14T09:35:03;8.20;99.90
6724;DHT22;3399;52.530;13.304;2022-11-14T09:37:29;8.30;99.90
6724;DHT22;3399;52.530;13.304;2022-11-14T09:39:55;8.30;99.90
6724;DHT22;3399;52.530;13.304;2022-11-14T09:42:43;8.40;99.90
6724;DHT22;3399;52.530;13.304;2022-11-14T09:45:15;8.40;99.90
6724;DHT22;3399;52.530;13.304;2022-11-14T09:47:54;8.60;99.90
6724;DHT22;3399;52.530;13.304;2022-11-14T09:50:28;8.60;99.90
6724;DHT22;3399;52.530;13.304;2022-11-14T09:52:56;8.70;99.90
6724;DHT22;3399;52.530;13.304;2022-11-14T09:55:28;8.80;99.90
6724;DHT22;3399;52.530;13.304;2022-11-14T09:57:54;8.90;99.90
6724;DHT22;3399;52.530;13.304;2022-11-14T10:00:23;9.00;99.90
6724;DHT22;3399;52.530;13.304;2022-11-14T10:03:13;9.10;99.90
6724;DHT22;3399;52.530;13.304;2022-11-14T10:05:54;9.20;99.90
6724;DHT22;3399;52.530;13.304;2022-11-14T10:17:04;9.60;99.90
6724;DHT22;3399;52.530;13.304;2022-11-14T10:19:45;9.80;99.90
6724;DHT22;3399;52.530;13.304;2022-11-14T10:25:21;10.00;99.90
6724;DHT22;3399;52.530;13.304;2022-11-14T10:28:02;10.10;99.90
6724;DHT22;3399;52.530;13.304;2022-11-14T10:30:39;10.20;99.90
6724;DHT22;3399;52.530;13.304;2022-11-14T10:35:56;10.50;99.90
6724;DHT22;3399;52.530;13.304;2022-11-14T10:38:29;10.60;99.90
6724;DHT22;3399;52.530;13.304;2022-11-14T10:41:00;10.60;99.90
6724;DHT22;3399;52.530;13.304;2022-11-14T10:43:39;10.70;99.90
6724;DHT22;3399;52.530;13.304;2022-11-14T10:46:18;10.80;99.90
6724;DHT22;3399;52.530;13.304;2022-11-14T10:48:47;11.00;99.90
6724;DHT22;3399;52.530;13.304;2022-11-14T10:51:27;11.10;99.90
6724;DHT22;3399;52.530;13.304;2022-11-14T10:54:11;11.20;99.90
6724;DHT22;3399;52.530;13.304;2022-11-14T10:56:49;11.30;99.90
6724;DHT22;3399;52.530;13.304;2022-11-14T10:59:15;11.30;99.90
6724;DHT22;3399;52.530;13.304;2022-11-14T11:04:28;11.40;99.90
6724;DHT22;3399;52.530;13.304;2022-11-14T11:07:19;11.60;99.90
6724;DHT22;3399;52.530;13.304;2022-11-14T11:10:24;11.70;99.90
6724;DHT22;3399;52.530;13.304;2022-11-14T11:13:12;11.70;99.90
6724;DHT22;3399;52.530;13.304;2022-11-14T11:15:41;11.70;99.90
6724;DHT22;3399;52.530;13.304;2022-11-14T11:18:31;11.80;99.90
6724;DHT22;3399;52.530;13.304;2022-11-14T11:21:14;11.90;99.90
6724;DHT22;3399;52.530;13.304;2022-11-14T11:23:52;12.10;99.90
6724;DHT22;3399;52.530;13.304;2022-11-14T11:26:27;12.20;99.90
6724;DHT22;3399;52.530;13.304;2022-11-14T11:31:52;12.60;99.90
6724;DHT22;3399;52.530;13.304;2022-11-14T11:34:26;12.80;99.90
6724;DHT22;3399;52.530;13.304;2022-11-14T11:37:14;13.00;99.90
6724;DHT22;3399;52.530;13.304;2022-11-14T11:40:05;13.20;99.90
6724;DHT22;3399;52.530;13.304;2022-11-14T11:42:35;13.30;99.90
6724;DHT22;3399;52.530;13.304;2022-11-14T11:45:08;13.40;99.90
6724;DHT22;3399;52.530;13.304;2022-11-14T11:47:37;13.60;99.90
6724;DHT22;3399;52.530;13.304;2022-11-14T11:50:10;13.80;99.90
6724;DHT22;3399;52.530;13.304;2022-11-14T11:55:31;14.10;99.90
6724;DHT22;3399;52.530;13.304;2022-11-14T11:58:21;14.40;99.90
6724;DHT22;3399;52.530;13.304;2022-11-14T12:00:53;14.50;99.90
6724;DHT22;3399;52.530;13.304;2022-11-14T12:03:23;14.60;99.90
6724;DHT22;3399;52.530;13.304;2022-11-14T12:09:14;15.10;99.90
6724;DHT22;3399;52.530;13.304;2022-11-14T12:11:49;15.30;99.90
6724;DHT22;3399;52.530;13.304;2022-11-14T12:14:40;15.40;99.90
6724;DHT22;3399;52.530;13.304;2022-11-14T12:31:12;16.20;99.30
6724;DHT22;3399;52.530;13.304;2022-11-14T12:33:43;16.50;98.70
6724;DHT22;3399;52.530;13.304;2022-11-14T12:36:11;16.70;97.80
6724;DHT22;3399;52.530;13.304;2022-11-14T12:38:51;16.90;97.80
6724;DHT22;3399;52.530;13.304;2022-11-14T12:41:28;17.00;97.10
6724;DHT22;3399;52.530;13.304;2022-11-14T12:44:15;17.10;97.00
6724;DHT22;3399;52.530;13.304;2022-11-14T12:49:36;17.40;96.20
6724;DHT22;3399;52.530;13.304;2022-11-14T12:52:03;17.50;95.70
6724;DHT22;3399;52.530;13.304;2022-11-14T12:54:54;17.70;95.60
6724;DHT22;3399;52.530;13.304;2022-11-14T12:57:40;18.00;95.30
6724;DHT22;3399;52.530;13.304;2022-11-14T13:00:15;18.50;94.90
6724;DHT22;3399;52.530;13.304;2022-11-14T13:02:45;18.90;93.80
6724;DHT22;3399;52.530;13.304;2022-11-14T13:05:54;19.10;93.00
6724;DHT22;3399;52.530;13.304;2022-11-14T13:14:23;18.40;92.90
6724;DHT22;3399;52.530;13.304;2022-11-14T13:19:56;18.60;92.30
6724;DHT22;3399;52.530;13.304;2022-11-14T13:22:45;17.90;92.70
6724;DHT22;3399;52.530;13.304;2022-11-14T13:27:36;16.20;94.80
6724;DHT22;3399;52.530;13.304;2022-11-14T13:30:04;15.50;95.70
6724;DHT22;3399;52.530;13.304;2022-11-14T13:35:28;14.40;97.90
6724;DHT22;3399;52.530;13.304;2022-11-14T13:38:18;13.90;98.90
6724;DHT22;3399;52.530;13.304;2022-11-14T13:43:37;13.40;99.90
6724;DHT22;3399;52.530;13.304;2022-11-14T13:46:15;13.10;99.90
6724;DHT22;3399;52.530;13.304;2022-11-14T13:49:18;13.00;99.90
6724;DHT22;3399;52.530;13.304;2022-11-14T13:51:47;12.80;99.90
6724;DHT22;3399;52.530;13.304;2022-11-14T13:54:16;12.70;99.90
6724;DHT22;3399;52.530;13.304;2022-11-14T13:59:42;12.50;99.90
6724;DHT22;3399;52.530;13.304;2022-11-14T14:08:08;12.20;99.90
6724;DHT22;3399;52.530;13.304;2022-11-14T14:16:30;12.00;99.90
6724;DHT22;3399;52.530;13.304;2022-11-14T14:19:07;11.90;99.90
6724;DHT22;3399;52.530;13.304;2022-11-14T14:21:40;11.80;99.90
6724;DHT22;3399;52.530;13.304;2022-11-14T14:24:40;11.70;99.90
6724;DHT22;3399;52.530;13.304;2022-11-14T14:30:11;11.60;99.90
6724;DHT22;3399;52.530;13.304;2022-11-14T14:32:37;11.50;99.90
6724;DHT22;3399;52.530;13.304;2022-11-14T14:37:50;11.40;99.90
6724;DHT22;3399;52.530;13.304;2022-11-14T14:40:26;11.30;99.90
6724;DHT22;3399;52.530;13.304;2022-11-14T14:42:53;11.30;99.90
6724;DHT22;3399;52.530;13.304;2022-11-14T14:45:20;11.30;99.90
6724;DHT22;3399;52.530;13.304;2022-11-14T14:47:49;11.20;99.90
6724;DHT22;3399;52.530;13.304;2022-11-14T14:50:19;11.10;99.90
6724;DHT22;3399;52.530;13.304;2022-11-14T14:52:45;11.10;99.90
6724;DHT22;3399;52.530;13.304;2022-11-14T14:55:21;11.10;99.90
6724;DHT22;3399;52.530;13.304;2022-11-14T14:57:47;10.90;99.90
6724;DHT22;3399;52.530;13.304;2022-11-14T15:00:22;10.80;99.90
6724;DHT22;3399;52.530;13.304;2022-11-14T15:02:53;10.80;99.90
6724;DHT22;3399;52.530;13.304;2022-11-14T15:05:27;10.70;99.90
6724;DHT22;3399;52.530;13.304;2022-11-14T15:07:58;10.60;99.90
6724;DHT22;3399;52.530;13.304;2022-11-14T15:10:27;10.50;99.90
6724;DHT22;3399;52.530;13.304;2022-11-14T15:12:57;10.50;99.90
6724;DHT22;3399;52.530;13.304;2022-11-14T15:15:23;10.40;99.90
6724;DHT22;3399;52.530;13.304;2022-11-14T15:17:51;10.30;99.90
6724;DHT22;3399;52.530;13.304;2022-11-14T15:20:25;10.20;99.90
6724;DHT22;3399;52.530;13.304;2022-11-14T15:25:36;10.00;99.90
6724;DHT22;3399;52.530;13.304;2022-11-14T15:28:02;10.00;99.90
6724;DHT22;3399;52.530;13.304;2022-11-14T15:30:32;10.00;99.90
6724;DHT22;3399;52.530;13.304;2022-11-14T15:33:03;10.00;99.90
6724;DHT22;3399;52.530;13.304;2022-11-14T15:35:37;9.90;99.90
6724;DHT22;3399;52.530;13.304;2022-11-14T15:40:35;9.80;99.90
6724;DHT22;3399;52.530;13.304;2022-11-14T15:46:38;9.70;99.90
6724;DHT22;3399;52.530;13.304;2022-11-14T15:51:42;9.60;99.90
6724;DHT22;3399;52.530;13.304;2022-11-14T15:54:27;9.60;99.90
6724;DHT22;3399;52.530;13.304;2022-11-14T15:56:55;9.60;99.90
6724;DHT22;3399;52.530;13.304;2022-11-14T15:59:21;9.60;99.90
6724;DHT22;3399;52.530;13.304;2022-11-14T16:01:50;9.50;99.90
6724;DHT22;3399;52.530;13.304;2022-11-14T16:04:19;9.60;99.90
6724;DHT22;3399;52.530;13.304;2022-11-14T16:06:44;9.60;99.90
6724;DHT22;3399;52.530;13.304;2022-11-14T16:09:16;9.50;99.90
6724;DHT22;3399;52.530;13.304;2022-11-14T16:11:48;9.50;99.90
6724;DHT22;3399;52.530;13.304;2022-11-14T16:14:19;9.40;99.90
6724;DHT22;3399;52.530;13.304;2022-11-14T16:16:45;9.40;99.90
6724;DHT22;3399;52.530;13.304;2022-11-14T16:19:14;9.30;99.90
6724;DHT22;3399;52.530;13.304;2022-11-14T16:21:41;9.30;99.90
6724;DHT22;3399;52.530;13.304;2022-11-14T16:24:12;9.30;99.90
6724;DHT22;3399;52.530;13.304;2022-11-14T16:26:39;9.30;99.90
6724;DHT22;3399;52.530;13.304;2022-11-14T16:29:05;9.30;99.90
6724;DHT22;3399;52.530;13.304;2022-11-14T16:31:31;9.20;99.90
6724;DHT22;3399;52.530;13.304;2022-11-14T16:33:57;9.20;99.90
6724;DHT22;3399;52.530;13.304;2022-11-14T16:36:22;9.10;99.90
6724;DHT22;3399;52.530;13.304;2022-11-14T16:38:48;9.10;99.90
6724;DHT22;3399;52.530;13.304;2022-11-14T16:41:14;9.10;99.90
6724;DHT22;3399;52.530;13.304;2022-11-14T16:43:40;9.10;99.90
6724;DHT22;3399;52.530;13.304;2022-11-14T16:46:06;9.00;99.90
6724;DHT22;3399;52.530;13.304;2022-11-14T16:48:32;8.90;99.90
6724;DHT22;3399;52.530;13.304;2022-11-14T16:51:02;9.00;99.90
6724;DHT22;3399;52.530;13.304;2022-11-14T16:53:27;8.90;99.90
6724;DHT22;3399;52.530;13.304;2022-11-14T16:55:54;8.90;99.90
6724;DHT22;3399;52.530;13.304;2022-11-14T16:58:20;9.00;99.90
6724;DHT22;3399;52.530;13.304;2022-11-14T17:00:46;9.00;99.90
6724;DHT22;3399;52.530;13.304;2022-11-14T17:03:12;9.00;99.90
6724;DHT22;3399;52.530;13.304;2022-11-14T17:05:46;8.90;99.90
6724;DHT22;3399;52.530;13.304;2022-11-14T17:08:13;8.90;99.90
6724;DHT22;3399;52.530;13.304;2022-11-14T17:10:43;9.00;99.90
6724;DHT22;3399;52.530;13.304;2022-11-14T17:13:09;8.90;99.90
6724;DHT22;3399;52.530;13.304;2022-11-14T17:15:35;8.90;99.90
6724;DHT22;3399;52.530;13.304;2022-11-14T17:18:01;8.80;99.90
6724;DHT22;3399;52.530;13.304;2022-11-14T17:20:27;8.80;99.90
6724;DHT22;3399;52.530;13.304;2022-11-14T17:22:53;8.80;99.90
6724;DHT22;3399;52.530;13.304;2022-11-14T17:25:19;8.70;99.90
6724;DHT22;3399;52.530;13.304;2022-11-14T17:27:45;8.70;99.90
6724;DHT22;3399;52.530;13.304;2022-11-14T17:30:14;8.60;99.90
6724;DHT22;3399;52.530;13.304;2022-11-14T17:32:40;8.60;99.90
6724;DHT22;3399;52.530;13.304;2022-11-14T17:35:06;8.70;99.90
6724;DHT22;3399;52.530;13.304;2022-11-14T17:37:32;8.70;99.90
6724;DHT22;3399;52.530;13.304;2022-11-14T17:39:58;8.60;99.90